Orchard Park, NY

3:28 AM EDT on September 02, 2014 (GMT -0400)
Hawthorne Dr. | Change Station
CLOSE
Current Station
Personal Weather Station
Location: Orchard Park, NY
Elevation: 787 ft
Nearby Weather Stations

Elev 787 ft 42.78 °N, 78.74 °W | Updated 2 seconds ago

Overcast
Overcast
70.1 °F
Feels Like 70.1 °F
N
0.0
Wind Variable Wind from West
Gusts 4.0 mph

Today
High -- | Low -- °F
--% Chance of Precip.
Yesterday
High -- | Low -- °F
Precip. -- in
6:40 AM 7:47 PM
Waxing Crescent, 48% visible
Pressure 29.82 in
Visibility 10.0 miles
Clouds Few 3500 ft
Scattered Clouds 10000 ft
Mostly Cloudy 16000 ft
Mostly Cloudy 25000 ft
Dew Point 69 °F
Humidity 95%
Rainfall 0.04 in
Snow Depth Not available.
UV 0 out of 12
Pollen 8.90 out of 12
Ozone Good
PM2.5 Good
Flu Activity Not available.
METAR KBUF 020654Z 22009KT 10SM FEW035 SCT100 BKN160 BKN250 22/19 A2983 RMK AO2 SLP098 T02170194

More Conditions Fewer Conditions

Pressure 29.82 in
Visibility 10.0 miles
Clouds Few 3500 ft
Scattered Clouds 10000 ft
Mostly Cloudy 16000 ft
Mostly Cloudy 25000 ft
Dew Point 69 °F
Humidity 95%
Rainfall 0.04 in
Snow Depth Not available.
UV 0 out of 12
Pollen 8.90 out of 12
Ozone Good
PM2.5 Good
Flu Activity Not available.
METAR KBUF 020654Z 22009KT 10SM FEW035 SCT100 BKN160 BKN250 22/19 A2983 RMK AO2 SLP098 T02170194

More Conditions Fewer Conditions

10-Day Weather Forecast

Almanac

Astronomy

Sep. 02, 2014 Rise Set
Actual Time 6:40 AM EDT 7:47 PM EDT
Civil Twilight 6:11 AM EDT 8:16 PM EDT
Nautical Twilight 5:36 AM EDT 8:51 PM EDT
Astronomical Twilight 5:00 AM EDT 9:27 PM EDT
Moon 2:33 PM EDT No Moon Set
Length of Visible Light 14h 04m
Length of Day
13h 06m
Tomorrow will be 2m 49s shorter.
Waxing Crescent, 48% of the Moon is Illuminated
Today
Waxing Crescent
Sep 2
First Quarter
Sep 8
Full
Sep 15
Last Quarter
Sep 24
New

Today's Extremes

State Highs State Lows

Community

WunderPhotos

Upload Photos

1,749,589 photos uploaded!

WunderBlogs® & News

Nearby

Air Quality

  Air Quality AQ Index Pollutant
Yesterday Good
OZONE
Yesterday Good
PM2.5
Current Good
OZONE
Current Good
PM2.5
Tuesday Good
PM2.5
Tuesday Good
OZONE

Snow Depth

Station Depth Elevation
No new snow has been reported.

Earthquake Activity

City Distance Mag. Time & Date
No recent earthquake activity has been reported nearby.
Minimum magnitude displayed is 2.5.

Coastal Water Temperatures

Place Temperature
Buffalo, NY 73.9 °F

Nearby Weather Stations